THY9217 LFPO-EDDS
Flight info
| Callsign | THY9217 |
|---|---|
| Flight time | 0h 52m |
| Altitude | 23000 |
| Route | BUBLI DCT LUVAL/N0357F240 DCT EPL R11 POGOL/N0324F170 R11 OBORN V17 LUPEN T126 REUTL REUTL1W |
| Aircraft | A20N/M-SDE2E3FGHIRWXY/LB1 |
Departure
| Time | 2026-05-07 10:01 |
|---|---|
| Airport | Paris-Orly Airport (LFPO) |
Arrival
| Time | 2026-05-07 10:53 |
|---|---|
| Airport | Stuttgart Airport (EDDS) |
| Time | Latitude | Longitude | Altitude | Speed | Heading |
|---|---|---|---|---|---|
| 2026-05-07 09:51 | 48.73122 | 2.35980 | 297 ft | 0 kts | 140° |
| 2026-05-07 09:55 | 48.73126 | 2.35976 | 297 ft | 1 kts | 140° |
| 2026-05-07 09:55 | 48.73132 | 2.35968 | 295 ft | 1 kts | 140° |
| 2026-05-07 09:55 | 48.73139 | 2.35959 | 296 ft | 4 kts | 137° |
| 2026-05-07 09:56 | 48.73162 | 2.35919 | 297 ft | 5 kts | 102° |
| 2026-05-07 09:56 | 48.73162 | 2.35895 | 297 ft | 0 kts | 60° |
| 2026-05-07 09:58 | 48.73164 | 2.35902 | 297 ft | 3 kts | 60° |
| 2026-05-07 09:58 | 48.73182 | 2.35950 | 297 ft | 7 kts | 60° |
| 2026-05-07 09:58 | 48.73213 | 2.36031 | 296 ft | 10 kts | 59° |
| 2026-05-07 09:59 | 48.73271 | 2.36104 | 297 ft | 12 kts | 3° |
| 2026-05-07 09:59 | 48.73354 | 2.36080 | 295 ft | 13 kts | 9° |
| 2026-05-07 09:59 | 48.73450 | 2.36100 | 297 ft | 15 kts | 350° |
| 2026-05-07 09:59 | 48.73508 | 2.35977 | 294 ft | 16 kts | 264° |
| 2026-05-07 10:00 | 48.73439 | 2.35766 | 295 ft | 44 kts | 242° |
| 2026-05-07 10:00 | 48.73185 | 2.35043 | 297 ft | 109 kts | 242° |
| 2026-05-07 10:00 | 48.72746 | 2.33799 | 299 ft | 157 kts | 243° |
| 2026-05-07 10:00 | 48.72206 | 2.32263 | 663 ft | 169 kts | 243° |
| 2026-05-07 10:01 | 48.71632 | 2.30660 | 1253 ft | 177 kts | 242° |
| 2026-05-07 10:01 | 48.71030 | 2.29001 | 1904 ft | 179 kts | 240° |
| 2026-05-07 10:01 | 48.70386 | 2.27410 | 2626 ft | 180 kts | 238° |
| 2026-05-07 10:01 | 48.69661 | 2.25720 | 3016 ft | 200 kts | 237° |
| 2026-05-07 10:02 | 48.68823 | 2.23979 | 3768 ft | 209 kts | 232° |
| 2026-05-07 10:02 | 48.67885 | 2.22203 | 4545 ft | 226 kts | 231° |
| 2026-05-07 10:02 | 48.66748 | 2.20525 | 5252 ft | 244 kts | 212° |
| 2026-05-07 10:02 | 48.65073 | 2.19702 | 5860 ft | 265 kts | 182° |
| 2026-05-07 10:03 | 48.63276 | 2.20216 | 6741 ft | 270 kts | 154° |
| 2026-05-07 10:03 | 48.61736 | 2.21860 | 7679 ft | 275 kts | 137° |
| 2026-05-07 10:03 | 48.60345 | 2.23871 | 8646 ft | 279 kts | 136° |
| 2026-05-07 10:03 | 48.58913 | 2.25884 | 9524 ft | 285 kts | 139° |
| 2026-05-07 10:04 | 48.57388 | 2.27829 | 9903 ft | 287 kts | 142° |
| 2026-05-07 10:04 | 48.55809 | 2.29684 | 10035 ft | 288 kts | 143° |
| 2026-05-07 10:04 | 48.54199 | 2.31490 | 10061 ft | 288 kts | 144° |
| 2026-05-07 10:04 | 48.52573 | 2.33285 | 10079 ft | 299 kts | 143° |
| 2026-05-07 10:05 | 48.51148 | 2.35724 | 10395 ft | 325 kts | 120° |
| 2026-05-07 10:05 | 48.50438 | 2.38990 | 10891 ft | 342 kts | 97° |
| 2026-05-07 10:05 | 48.50455 | 2.42658 | 11733 ft | 348 kts | 85° |
| 2026-05-07 10:05 | 48.50739 | 2.46310 | 12573 ft | 353 kts | 83° |
| 2026-05-07 10:06 | 48.51033 | 2.50006 | 13394 ft | 358 kts | 84° |
| 2026-05-07 10:06 | 48.51272 | 2.53777 | 14051 ft | 368 kts | 85° |
| 2026-05-07 10:06 | 48.51465 | 2.57742 | 14278 ft | 389 kts | 86° |
| 2026-05-07 10:06 | 48.51630 | 2.61914 | 14500 ft | 408 kts | 86° |
| 2026-05-07 10:07 | 48.51782 | 2.66235 | 15057 ft | 415 kts | 87° |
| 2026-05-07 10:07 | 48.51930 | 2.70602 | 15774 ft | 419 kts | 87° |
| 2026-05-07 10:07 | 48.52078 | 2.75011 | 16451 ft | 423 kts | 87° |
| 2026-05-07 10:07 | 48.52230 | 2.79500 | 16929 ft | 434 kts | 86° |
| 2026-05-07 10:08 | 48.52734 | 2.84027 | 17245 ft | 445 kts | 72° |
| 2026-05-07 10:08 | 48.53963 | 2.88312 | 17979 ft | 444 kts | 59° |
| 2026-05-07 10:08 | 48.55786 | 2.92052 | 18719 ft | 442 kts | 47° |
| 2026-05-07 10:08 | 48.57864 | 2.95363 | 19457 ft | 439 kts | 45° |
| 2026-05-07 10:09 | 48.60049 | 2.98739 | 19858 ft | 449 kts | 45° |
| 2026-05-07 10:09 | 48.62184 | 3.02165 | 20052 ft | 460 kts | 46° |
| 2026-05-07 10:09 | 48.64336 | 3.05771 | 20608 ft | 461 kts | 47° |
| 2026-05-07 10:09 | 48.66452 | 3.09411 | 21291 ft | 460 kts | 48° |
| 2026-05-07 10:10 | 48.68550 | 3.13063 | 21984 ft | 459 kts | 48° |
| 2026-05-07 10:10 | 48.70638 | 3.16719 | 22683 ft | 458 kts | 49° |
| 2026-05-07 10:10 | 48.72712 | 3.20357 | 23369 ft | 458 kts | 49° |
| 2026-05-07 10:10 | 48.74800 | 3.24024 | 24014 ft | 457 kts | 49° |
| 2026-05-07 10:11 | 48.76866 | 3.27656 | 24648 ft | 455 kts | 49° |
| 2026-05-07 10:11 | 48.78947 | 3.31332 | 24863 ft | 464 kts | 50° |
| 2026-05-07 10:11 | 48.80754 | 3.35438 | 24977 ft | 474 kts | 62° |
| 2026-05-07 10:11 | 48.82008 | 3.40124 | 25087 ft | 484 kts | 74° |
| 2026-05-07 10:12 | 48.82631 | 3.45160 | 25195 ft | 491 kts | 85° |
| 2026-05-07 10:12 | 48.82581 | 3.50338 | 25428 ft | 493 kts | 97° |
| 2026-05-07 10:12 | 48.81961 | 3.55456 | 25777 ft | 492 kts | 103° |
| 2026-05-07 10:12 | 48.81248 | 3.60532 | 26132 ft | 491 kts | 102° |
| 2026-05-07 10:13 | 48.80655 | 3.65640 | 26496 ft | 490 kts | 99° |
| 2026-05-07 10:13 | 48.80188 | 3.70753 | 26872 ft | 489 kts | 97° |
| 2026-05-07 10:13 | 48.79801 | 3.75875 | 27243 ft | 489 kts | 96° |
| 2026-05-07 10:13 | 48.79452 | 3.81000 | 27612 ft | 488 kts | 96° |
| 2026-05-07 10:14 | 48.79114 | 3.86115 | 27947 ft | 487 kts | 96° |
| 2026-05-07 10:14 | 48.78779 | 3.91205 | 28067 ft | 485 kts | 96° |
| 2026-05-07 10:14 | 48.78438 | 3.96317 | 28069 ft | 488 kts | 96° |
| 2026-05-07 10:15 | 48.77745 | 4.06548 | 28078 ft | 488 kts | 96° |
| 2026-05-07 10:15 | 48.76014 | 4.16427 | 28075 ft | 486 kts | 115° |
| 2026-05-07 10:16 | 48.72441 | 4.25074 | 28075 ft | 484 kts | 126° |
| 2026-05-07 10:16 | 48.68530 | 4.33383 | 28070 ft | 484 kts | 126° |
| 2026-05-07 10:17 | 48.64653 | 4.41621 | 28066 ft | 484 kts | 126° |
| 2026-05-07 10:17 | 48.60752 | 4.49879 | 28061 ft | 483 kts | 126° |
| 2026-05-07 10:18 | 48.56936 | 4.58218 | 28063 ft | 483 kts | 119° |
| 2026-05-07 10:18 | 48.55605 | 4.62860 | 28064 ft | 483 kts | 108° |
| 2026-05-07 10:18 | 48.54910 | 4.67823 | 28070 ft | 484 kts | 96° |
| 2026-05-07 10:19 | 48.54636 | 4.77970 | 28077 ft | 484 kts | 92° |
| 2026-05-07 10:19 | 48.54465 | 4.86413 | 28074 ft | 484 kts | 92° |
| 2026-05-07 10:20 | 48.54219 | 4.96576 | 28079 ft | 484 kts | 92° |
| 2026-05-07 10:20 | 48.53948 | 5.06708 | 28070 ft | 484 kts | 93° |
| 2026-05-07 10:21 | 48.53663 | 5.16860 | 28063 ft | 484 kts | 93° |
| 2026-05-07 10:21 | 48.53371 | 5.26990 | 28063 ft | 483 kts | 93° |
| 2026-05-07 10:22 | 48.53070 | 5.37123 | 28050 ft | 483 kts | 93° |
| 2026-05-07 10:22 | 48.52761 | 5.47246 | 28044 ft | 483 kts | 93° |
| 2026-05-07 10:23 | 48.52442 | 5.57374 | 28049 ft | 483 kts | 93° |
| 2026-05-07 10:23 | 48.52114 | 5.67505 | 28047 ft | 483 kts | 94° |
| 2026-05-07 10:24 | 48.51778 | 5.77633 | 28044 ft | 483 kts | 94° |
| 2026-05-07 10:24 | 48.51432 | 5.87749 | 28047 ft | 483 kts | 94° |
| 2026-05-07 10:25 | 48.51080 | 5.97809 | 28044 ft | 483 kts | 94° |
| 2026-05-07 10:25 | 48.50718 | 6.07910 | 28043 ft | 483 kts | 94° |
| 2026-05-07 10:26 | 48.50347 | 6.18008 | 28051 ft | 482 kts | 94° |
| 2026-05-07 10:26 | 48.49967 | 6.28099 | 28044 ft | 482 kts | 94° |
| 2026-05-07 10:27 | 48.49578 | 6.38189 | 28043 ft | 482 kts | 95° |
| 2026-05-07 10:27 | 48.49180 | 6.48273 | 28046 ft | 482 kts | 95° |
| 2026-05-07 10:28 | 48.48774 | 6.58363 | 28047 ft | 481 kts | 95° |
| 2026-05-07 10:28 | 48.48359 | 6.68429 | 28053 ft | 481 kts | 95° |
| 2026-05-07 10:29 | 48.47936 | 6.78489 | 28047 ft | 481 kts | 95° |
| 2026-05-07 10:29 | 48.47505 | 6.88530 | 28055 ft | 481 kts | 95° |
| 2026-05-07 10:30 | 48.46840 | 7.03614 | 28047 ft | 481 kts | 95° |
| 2026-05-07 10:30 | 48.46387 | 7.13669 | 28047 ft | 481 kts | 95° |
| 2026-05-07 10:31 | 48.45925 | 7.23716 | 28045 ft | 480 kts | 95° |
| 2026-05-07 10:31 | 48.45454 | 7.33744 | 28045 ft | 480 kts | 95° |
| 2026-05-07 10:32 | 48.44973 | 7.43785 | 28047 ft | 480 kts | 95° |
| 2026-05-07 10:32 | 48.44488 | 7.53758 | 28046 ft | 481 kts | 95° |
| 2026-05-07 10:33 | 48.43992 | 7.63795 | 28044 ft | 481 kts | 95° |
| 2026-05-07 10:33 | 48.43491 | 7.73827 | 28047 ft | 481 kts | 95° |
| 2026-05-07 10:34 | 48.42943 | 7.83876 | 28047 ft | 481 kts | 96° |
| 2026-05-07 10:34 | 48.42370 | 7.93917 | 28052 ft | 482 kts | 96° |
| 2026-05-07 10:35 | 48.41795 | 8.03969 | 28048 ft | 482 kts | 96° |
| 2026-05-07 10:35 | 48.41214 | 8.14024 | 28043 ft | 483 kts | 96° |
| 2026-05-07 10:36 | 48.40623 | 8.24096 | 28041 ft | 483 kts | 96° |
| 2026-05-07 10:36 | 48.40022 | 8.34183 | 28031 ft | 484 kts | 96° |
| 2026-05-07 10:37 | 48.39417 | 8.44203 | 28029 ft | 485 kts | 97° |
| 2026-05-07 10:37 | 48.39110 | 8.49224 | 27965 ft | 479 kts | 97° |
| 2026-05-07 10:37 | 48.38808 | 8.54153 | 27781 ft | 467 kts | 97° |
| 2026-05-07 10:38 | 48.38550 | 8.58991 | 27166 ft | 463 kts | 92° |
| 2026-05-07 10:38 | 48.38772 | 8.63795 | 26439 ft | 460 kts | 81° |
| 2026-05-07 10:38 | 48.39590 | 8.68441 | 25733 ft | 457 kts | 70° |
| 2026-05-07 10:38 | 48.40911 | 8.72768 | 25054 ft | 453 kts | 64° |
| 2026-05-07 10:39 | 48.42322 | 8.76978 | 24398 ft | 448 kts | 64° |
| 2026-05-07 10:39 | 48.43711 | 8.81142 | 23741 ft | 444 kts | 64° |
| 2026-05-07 10:39 | 48.45085 | 8.85280 | 22997 ft | 439 kts | 64° |
| 2026-05-07 10:39 | 48.46443 | 8.89380 | 22250 ft | 435 kts | 64° |
| 2026-05-07 10:40 | 48.47788 | 8.93450 | 21504 ft | 432 kts | 64° |
| 2026-05-07 10:40 | 48.49117 | 8.97477 | 20767 ft | 428 kts | 64° |
| 2026-05-07 10:40 | 48.50448 | 9.01520 | 19843 ft | 431 kts | 64° |
| 2026-05-07 10:40 | 48.51780 | 9.05572 | 18780 ft | 435 kts | 64° |
| 2026-05-07 10:41 | 48.53138 | 9.09710 | 17564 ft | 443 kts | 64° |
| 2026-05-07 10:41 | 48.54495 | 9.13849 | 16707 ft | 439 kts | 65° |
| 2026-05-07 10:41 | 48.55822 | 9.17899 | 15901 ft | 434 kts | 65° |
| 2026-05-07 10:41 | 48.57166 | 9.22013 | 15102 ft | 429 kts | 65° |
| 2026-05-07 10:42 | 48.58678 | 9.25801 | 14336 ft | 426 kts | 52° |
| 2026-05-07 10:42 | 48.60771 | 9.28929 | 13532 ft | 423 kts | 37° |
| 2026-05-07 10:42 | 48.63303 | 9.31096 | 12770 ft | 416 kts | 21° |
| 2026-05-07 10:42 | 48.66058 | 9.32267 | 11987 ft | 410 kts | 14° |
| 2026-05-07 10:43 | 48.68678 | 9.33900 | 11209 ft | 406 kts | 31° |
| 2026-05-07 10:43 | 48.70858 | 9.36566 | 10447 ft | 402 kts | 48° |
| 2026-05-07 10:43 | 48.72409 | 9.40031 | 9679 ft | 397 kts | 65° |
| 2026-05-07 10:43 | 48.73191 | 9.43991 | 8916 ft | 391 kts | 84° |
| 2026-05-07 10:44 | 48.73091 | 9.48029 | 8452 ft | 377 kts | 103° |
| 2026-05-07 10:44 | 48.72139 | 9.51614 | 8160 ft | 360 kts | 124° |
| 2026-05-07 10:44 | 48.70481 | 9.54337 | 7854 ft | 346 kts | 145° |
| 2026-05-07 10:44 | 48.68373 | 9.55877 | 7551 ft | 332 kts | 166° |
| 2026-05-07 10:45 | 48.66206 | 9.56887 | 7233 ft | 321 kts | 154° |
| 2026-05-07 10:45 | 48.64499 | 9.58898 | 6942 ft | 305 kts | 130° |
| 2026-05-07 10:45 | 48.63537 | 9.61657 | 6644 ft | 295 kts | 105° |
| 2026-05-07 10:45 | 48.63442 | 9.64778 | 6349 ft | 301 kts | 80° |
| 2026-05-07 10:46 | 48.64215 | 9.67664 | 6038 ft | 295 kts | 54° |
| 2026-05-07 10:46 | 48.65690 | 9.69719 | 5736 ft | 286 kts | 28° |
| 2026-05-07 10:46 | 48.67525 | 9.70553 | 5438 ft | 278 kts | 1° |
| 2026-05-07 10:46 | 48.69409 | 9.70048 | 5135 ft | 270 kts | 333° |
| 2026-05-07 10:47 | 48.70841 | 9.68374 | 4842 ft | 262 kts | 306° |
| 2026-05-07 10:47 | 48.71589 | 9.65886 | 4540 ft | 255 kts | 283° |
| 2026-05-07 10:47 | 48.72014 | 9.63287 | 4244 ft | 254 kts | 283° |
| 2026-05-07 10:47 | 48.72424 | 9.60721 | 4030 ft | 251 kts | 283° |
| 2026-05-07 10:48 | 48.72837 | 9.58117 | 4006 ft | 262 kts | 282° |
| 2026-05-07 10:48 | 48.73263 | 9.55422 | 3986 ft | 263 kts | 282° |
| 2026-05-07 10:48 | 48.73570 | 9.52714 | 3841 ft | 260 kts | 268° |
| 2026-05-07 10:48 | 48.73414 | 9.50000 | 3557 ft | 258 kts | 263° |
| 2026-05-07 10:49 | 48.73234 | 9.47304 | 3315 ft | 253 kts | 264° |
| 2026-05-07 10:49 | 48.73041 | 9.44740 | 3161 ft | 237 kts | 261° |
| 2026-05-07 10:49 | 48.72742 | 9.42375 | 3017 ft | 221 kts | 256° |
| 2026-05-07 10:49 | 48.72379 | 9.40211 | 2944 ft | 202 kts | 255° |
| 2026-05-07 10:50 | 48.72017 | 9.38230 | 2780 ft | 188 kts | 254° |
| 2026-05-07 10:50 | 48.71673 | 9.36395 | 2680 ft | 174 kts | 253° |
| 2026-05-07 10:50 | 48.71351 | 9.34694 | 2575 ft | 162 kts | 253° |
| 2026-05-07 10:50 | 48.71054 | 9.33118 | 2486 ft | 149 kts | 253° |
| 2026-05-07 10:51 | 48.70773 | 9.31634 | 2266 ft | 143 kts | 254° |
| 2026-05-07 10:51 | 48.70515 | 9.30267 | 2179 ft | 130 kts | 255° |
| 2026-05-07 10:51 | 48.70258 | 9.28928 | 1804 ft | 132 kts | 255° |
| 2026-05-07 10:51 | 48.69997 | 9.27612 | 1569 ft | 132 kts | 256° |
| 2026-05-07 10:52 | 48.69758 | 9.26288 | 1419 ft | 132 kts | 257° |
| 2026-05-07 10:52 | 48.69509 | 9.24971 | 1270 ft | 130 kts | 256° |
| 2026-05-07 10:52 | 48.69263 | 9.23669 | 1203 ft | 122 kts | 256° |
| 2026-05-07 10:52 | 48.69075 | 9.22653 | 1228 ft | 84 kts | 253° |
| 2026-05-07 10:53 | 48.68947 | 9.21952 | 1251 ft | 32 kts | 261° |
| 2026-05-07 10:53 | 48.68952 | 9.21672 | 1252 ft | 27 kts | 282° |
| 2026-05-07 10:53 | 48.68991 | 9.21405 | 1264 ft | 24 kts | 283° |
| 2026-05-07 10:53 | 48.69031 | 9.21165 | 1262 ft | 23 kts | 286° |
| 2026-05-07 10:54 | 48.69107 | 9.20975 | 1266 ft | 18 kts | 308° |
| 2026-05-07 10:54 | 48.69114 | 9.20961 | 1271 ft | 0 kts | 308° |